sensor_id;sensor_type;location;lat;lon;timestamp;P1;durP1;ratioP1;P2;durP2;ratioP2
52057;SDS011;38063;53.210;6.504;2023-01-26T00:00:51;45.95;;;15.13;;
52057;SDS011;38063;53.210;6.504;2023-01-26T00:03:17;40.67;;;14.57;;
52057;SDS011;38063;53.210;6.504;2023-01-26T00:05:43;44.47;;;14.02;;
52057;SDS011;38063;53.210;6.504;2023-01-26T00:08:09;44.75;;;14.98;;
52057;SDS011;38063;53.210;6.504;2023-01-26T00:10:36;40.08;;;13.80;;
52057;SDS011;38063;53.210;6.504;2023-01-26T00:13:03;47.63;;;16.17;;
52057;SDS011;38063;53.210;6.504;2023-01-26T00:15:33;45.42;;;16.05;;
52057;SDS011;38063;53.210;6.504;2023-01-26T00:18:00;46.95;;;15.73;;
52057;SDS011;38063;53.210;6.504;2023-01-26T00:20:27;47.05;;;15.93;;
52057;SDS011;38063;53.210;6.504;2023-01-26T00:22:53;45.05;;;15.70;;
52057;SDS011;38063;53.210;6.504;2023-01-26T00:25:19;36.10;;;14.23;;
52057;SDS011;38063;53.210;6.504;2023-01-26T00:27:44;43.53;;;15.63;;
52057;SDS011;38063;53.210;6.504;2023-01-26T00:30:11;45.22;;;15.25;;
52057;SDS011;38063;53.210;6.504;2023-01-26T00:32:37;41.13;;;13.55;;
52057;SDS011;38063;53.210;6.504;2023-01-26T00:35:03;48.25;;;15.60;;
52057;SDS011;38063;53.210;6.504;2023-01-26T00:37:29;44.33;;;16.08;;
52057;SDS011;38063;53.210;6.504;2023-01-26T00:39:55;48.17;;;15.93;;
52057;SDS011;38063;53.210;6.504;2023-01-26T00:42:21;44.80;;;15.43;;
52057;SDS011;38063;53.210;6.504;2023-01-26T00:44:48;51.55;;;16.40;;
52057;SDS011;38063;53.210;6.504;2023-01-26T00:47:15;51.05;;;16.45;;
52057;SDS011;38063;53.210;6.504;2023-01-26T00:49:41;52.17;;;16.45;;
52057;SDS011;38063;53.210;6.504;2023-01-26T00:52:07;49.75;;;15.77;;
52057;SDS011;38063;53.210;6.504;2023-01-26T00:54:33;45.25;;;15.68;;
52057;SDS011;38063;53.210;6.504;2023-01-26T00:56:59;45.58;;;14.95;;
52057;SDS011;38063;53.210;6.504;2023-01-26T00:59:25;41.78;;;14.13;;
52057;SDS011;38063;53.210;6.504;2023-01-26T01:01:51;44.95;;;15.68;;
52057;SDS011;38063;53.210;6.504;2023-01-26T01:04:17;39.42;;;15.13;;
52057;SDS011;38063;53.210;6.504;2023-01-26T01:06:43;52.28;;;16.13;;
52057;SDS011;38063;53.210;6.504;2023-01-26T01:09:09;43.70;;;14.80;;
52057;SDS011;38063;53.210;6.504;2023-01-26T01:11:35;41.00;;;14.73;;
52057;SDS011;38063;53.210;6.504;2023-01-26T01:14:01;47.53;;;15.95;;
52057;SDS011;38063;53.210;6.504;2023-01-26T01:16:26;49.83;;;14.85;;
52057;SDS011;38063;53.210;6.504;2023-01-26T01:18:53;49.30;;;15.18;;
52057;SDS011;38063;53.210;6.504;2023-01-26T01:21:20;43.42;;;14.85;;
52057;SDS011;38063;53.210;6.504;2023-01-26T01:23:46;47.63;;;15.00;;
52057;SDS011;38063;53.210;6.504;2023-01-26T01:26:12;44.92;;;14.27;;
52057;SDS011;38063;53.210;6.504;2023-01-26T01:28:39;47.83;;;14.70;;
52057;SDS011;38063;53.210;6.504;2023-01-26T01:31:06;46.60;;;15.57;;
52057;SDS011;38063;53.210;6.504;2023-01-26T01:33:33;48.10;;;14.82;;
52057;SDS011;38063;53.210;6.504;2023-01-26T01:36:01;42.50;;;14.02;;
52057;SDS011;38063;53.210;6.504;2023-01-26T01:38:28;47.03;;;15.48;;
52057;SDS011;38063;53.210;6.504;2023-01-26T01:40:54;50.15;;;15.23;;
52057;SDS011;38063;53.210;6.504;2023-01-26T01:43:20;43.85;;;13.52;;
52057;SDS011;38063;53.210;6.504;2023-01-26T01:45:47;38.83;;;13.95;;
52057;SDS011;38063;53.210;6.504;2023-01-26T01:50:59;40.35;;;14.10;;
52057;SDS011;38063;53.210;6.504;2023-01-26T01:53:34;45.47;;;13.13;;
52057;SDS011;38063;53.210;6.504;2023-01-26T01:56:04;43.05;;;14.00;;
52057;SDS011;38063;53.210;6.504;2023-01-26T01:58:35;47.47;;;15.05;;
52057;SDS011;38063;53.210;6.504;2023-01-26T02:01:05;46.65;;;13.93;;
52057;SDS011;38063;53.210;6.504;2023-01-26T02:03:31;39.83;;;14.27;;
52057;SDS011;38063;53.210;6.504;2023-01-26T02:08:35;42.67;;;13.23;;
52057;SDS011;38063;53.210;6.504;2023-01-26T02:11:06;41.83;;;13.98;;
52057;SDS011;38063;53.210;6.504;2023-01-26T02:13:40;42.10;;;13.07;;
52057;SDS011;38063;53.210;6.504;2023-01-26T02:16:07;41.30;;;12.60;;
52057;SDS011;38063;53.210;6.504;2023-01-26T02:18:33;34.97;;;12.65;;
52057;SDS011;38063;53.210;6.504;2023-01-26T02:21:00;40.50;;;14.13;;
52057;SDS011;38063;53.210;6.504;2023-01-26T02:26:34;40.58;;;12.02;;
52057;SDS011;38063;53.210;6.504;2023-01-26T02:29:01;38.70;;;13.60;;
52057;SDS011;38063;53.210;6.504;2023-01-26T02:31:30;38.28;;;12.85;;
52057;SDS011;38063;53.210;6.504;2023-01-26T02:33:56;38.58;;;12.25;;
52057;SDS011;38063;53.210;6.504;2023-01-26T02:36:23;35.30;;;12.95;;
52057;SDS011;38063;53.210;6.504;2023-01-26T02:39:16;44.28;;;13.25;;
52057;SDS011;38063;53.210;6.504;2023-01-26T02:41:49;33.60;;;12.25;;
52057;SDS011;38063;53.210;6.504;2023-01-26T02:44:34;31.33;;;11.75;;
52057;SDS011;38063;53.210;6.504;2023-01-26T02:47:09;37.10;;;12.20;;
52057;SDS011;38063;53.210;6.504;2023-01-26T02:49:39;38.38;;;12.57;;
52057;SDS011;38063;53.210;6.504;2023-01-26T02:52:11;40.35;;;13.20;;
52057;SDS011;38063;53.210;6.504;2023-01-26T02:54:36;35.13;;;13.90;;
52057;SDS011;38063;53.210;6.504;2023-01-26T02:57:21;44.08;;;13.18;;
52057;SDS011;38063;53.210;6.504;2023-01-26T02:59:46;46.60;;;13.82;;
52057;SDS011;38063;53.210;6.504;2023-01-26T03:02:12;41.50;;;12.77;;
52057;SDS011;38063;53.210;6.504;2023-01-26T03:04:37;39.35;;;13.05;;
52057;SDS011;38063;53.210;6.504;2023-01-26T03:07:03;39.58;;;13.05;;
52057;SDS011;38063;53.210;6.504;2023-01-26T03:09:29;39.20;;;12.73;;
52057;SDS011;38063;53.210;6.504;2023-01-26T03:11:55;43.22;;;13.88;;
52057;SDS011;38063;53.210;6.504;2023-01-26T03:14:20;43.53;;;13.25;;
52057;SDS011;38063;53.210;6.504;2023-01-26T03:16:46;47.67;;;13.88;;
52057;SDS011;38063;53.210;6.504;2023-01-26T03:19:12;42.17;;;13.35;;
52057;SDS011;38063;53.210;6.504;2023-01-26T03:21:58;43.53;;;13.75;;
52057;SDS011;38063;53.210;6.504;2023-01-26T03:24:42;40.92;;;13.75;;
52057;SDS011;38063;53.210;6.504;2023-01-26T03:27:28;36.33;;;12.57;;
52057;SDS011;38063;53.210;6.504;2023-01-26T03:30:07;40.33;;;12.65;;
52057;SDS011;38063;53.210;6.504;2023-01-26T03:32:34;44.97;;;12.73;;
52057;SDS011;38063;53.210;6.504;2023-01-26T03:34:59;38.83;;;13.57;;
52057;SDS011;38063;53.210;6.504;2023-01-26T03:37:25;39.47;;;12.93;;
52057;SDS011;38063;53.210;6.504;2023-01-26T03:39:51;42.55;;;12.82;;
52057;SDS011;38063;53.210;6.504;2023-01-26T03:42:35;44.28;;;12.57;;
52057;SDS011;38063;53.210;6.504;2023-01-26T03:45:20;42.60;;;13.10;;
52057;SDS011;38063;53.210;6.504;2023-01-26T03:48:08;49.33;;;12.80;;
52057;SDS011;38063;53.210;6.504;2023-01-26T03:50:54;42.75;;;13.82;;
52057;SDS011;38063;53.210;6.504;2023-01-26T03:53:38;44.47;;;13.98;;
52057;SDS011;38063;53.210;6.504;2023-01-26T03:56:23;45.28;;;13.55;;
52057;SDS011;38063;53.210;6.504;2023-01-26T03:58:56;38.88;;;13.48;;
52057;SDS011;38063;53.210;6.504;2023-01-26T04:01:32;47.90;;;14.95;;
52057;SDS011;38063;53.210;6.504;2023-01-26T04:04:03;43.65;;;14.90;;
52057;SDS011;38063;53.210;6.504;2023-01-26T04:06:49;38.85;;;13.20;;
52057;SDS011;38063;53.210;6.504;2023-01-26T04:09:34;44.45;;;14.05;;
52057;SDS011;38063;53.210;6.504;2023-01-26T04:12:01;49.25;;;14.23;;
52057;SDS011;38063;53.210;6.504;2023-01-26T04:14:27;42.70;;;14.05;;
52057;SDS011;38063;53.210;6.504;2023-01-26T04:17:11;48.97;;;14.30;;
52057;SDS011;38063;53.210;6.504;2023-01-26T04:19:56;47.75;;;16.05;;
52057;SDS011;38063;53.210;6.504;2023-01-26T04:22:40;47.90;;;14.85;;
52057;SDS011;38063;53.210;6.504;2023-01-26T04:25:13;61.13;;;17.30;;
52057;SDS011;38063;53.210;6.504;2023-01-26T04:27:40;63.88;;;16.40;;
52057;SDS011;38063;53.210;6.504;2023-01-26T04:30:08;53.35;;;16.33;;
52057;SDS011;38063;53.210;6.504;2023-01-26T04:32:35;54.40;;;14.90;;
52057;SDS011;38063;53.210;6.504;2023-01-26T04:35:00;59.10;;;15.65;;
52057;SDS011;38063;53.210;6.504;2023-01-26T04:37:26;48.22;;;15.68;;
52057;SDS011;38063;53.210;6.504;2023-01-26T04:39:52;59.58;;;15.25;;
52057;SDS011;38063;53.210;6.504;2023-01-26T04:42:17;57.95;;;15.00;;
52057;SDS011;38063;53.210;6.504;2023-01-26T04:44:43;59.60;;;16.23;;
52057;SDS011;38063;53.210;6.504;2023-01-26T04:47:09;66.05;;;16.38;;
52057;SDS011;38063;53.210;6.504;2023-01-26T04:49:34;57.83;;;15.45;;
52057;SDS011;38063;53.210;6.504;2023-01-26T04:52:00;49.10;;;16.33;;
52057;SDS011;38063;53.210;6.504;2023-01-26T04:54:26;55.97;;;15.10;;
52057;SDS011;38063;53.210;6.504;2023-01-26T04:56:51;55.17;;;16.65;;
52057;SDS011;38063;53.210;6.504;2023-01-26T04:59:17;62.35;;;16.33;;
52057;SDS011;38063;53.210;6.504;2023-01-26T05:01:42;54.40;;;15.85;;
52057;SDS011;38063;53.210;6.504;2023-01-26T05:04:09;57.13;;;16.27;;
52057;SDS011;38063;53.210;6.504;2023-01-26T05:06:35;64.38;;;17.70;;
52057;SDS011;38063;53.210;6.504;2023-01-26T05:09:02;71.38;;;17.45;;
52057;SDS011;38063;53.210;6.504;2023-01-26T05:11:29;59.05;;;16.98;;
52057;SDS011;38063;53.210;6.504;2023-01-26T05:13:55;70.75;;;17.35;;
52057;SDS011;38063;53.210;6.504;2023-01-26T05:16:21;66.38;;;17.60;;
52057;SDS011;38063;53.210;6.504;2023-01-26T05:18:46;59.63;;;16.45;;
52057;SDS011;38063;53.210;6.504;2023-01-26T05:21:12;64.32;;;17.20;;
52057;SDS011;38063;53.210;6.504;2023-01-26T05:23:38;56.45;;;17.13;;
52057;SDS011;38063;53.210;6.504;2023-01-26T05:26:04;67.68;;;17.17;;
52057;SDS011;38063;53.210;6.504;2023-01-26T05:28:30;60.33;;;17.80;;
52057;SDS011;38063;53.210;6.504;2023-01-26T05:30:55;60.13;;;15.77;;
52057;SDS011;38063;53.210;6.504;2023-01-26T05:33:21;62.17;;;17.50;;
52057;SDS011;38063;53.210;6.504;2023-01-26T05:35:47;69.95;;;17.58;;
52057;SDS011;38063;53.210;6.504;2023-01-26T05:38:14;73.18;;;17.90;;
52057;SDS011;38063;53.210;6.504;2023-01-26T05:40:40;70.60;;;16.75;;
52057;SDS011;38063;53.210;6.504;2023-01-26T05:43:05;82.07;;;17.95;;
52057;SDS011;38063;53.210;6.504;2023-01-26T05:45:32;62.42;;;15.50;;
52057;SDS011;38063;53.210;6.504;2023-01-26T05:47:58;77.25;;;18.35;;
52057;SDS011;38063;53.210;6.504;2023-01-26T05:50:24;83.32;;;16.88;;
52057;SDS011;38063;53.210;6.504;2023-01-26T05:52:50;82.03;;;17.20;;
52057;SDS011;38063;53.210;6.504;2023-01-26T05:55:16;79.68;;;16.33;;
52057;SDS011;38063;53.210;6.504;2023-01-26T05:57:42;84.38;;;15.48;;
52057;SDS011;38063;53.210;6.504;2023-01-26T06:00:08;89.40;;;16.67;;
52057;SDS011;38063;53.210;6.504;2023-01-26T06:02:35;100.45;;;18.17;;
52057;SDS011;38063;53.210;6.504;2023-01-26T06:05:00;95.30;;;17.15;;
52057;SDS011;38063;53.210;6.504;2023-01-26T06:07:26;96.57;;;17.35;;
52057;SDS011;38063;53.210;6.504;2023-01-26T06:09:52;102.32;;;16.67;;
52057;SDS011;38063;53.210;6.504;2023-01-26T06:12:18;98.32;;;18.38;;
52057;SDS011;38063;53.210;6.504;2023-01-26T06:14:45;99.50;;;17.42;;
52057;SDS011;38063;53.210;6.504;2023-01-26T06:17:11;101.38;;;17.67;;
52057;SDS011;38063;53.210;6.504;2023-01-26T06:19:37;88.15;;;15.90;;
52057;SDS011;38063;53.210;6.504;2023-01-26T06:22:06;95.78;;;16.45;;
52057;SDS011;38063;53.210;6.504;2023-01-26T06:24:33;109.75;;;17.88;;
52057;SDS011;38063;53.210;6.504;2023-01-26T06:26:59;88.93;;;16.05;;
52057;SDS011;38063;53.210;6.504;2023-01-26T06:29:26;86.97;;;16.38;;
52057;SDS011;38063;53.210;6.504;2023-01-26T06:31:51;83.15;;;16.27;;
52057;SDS011;38063;53.210;6.504;2023-01-26T06:34:17;92.22;;;17.42;;
52057;SDS011;38063;53.210;6.504;2023-01-26T06:36:43;103.63;;;16.67;;
52057;SDS011;38063;53.210;6.504;2023-01-26T06:39:09;101.50;;;17.08;;
52057;SDS011;38063;53.210;6.504;2023-01-26T06:41:36;106.68;;;18.50;;
52057;SDS011;38063;53.210;6.504;2023-01-26T06:44:01;92.80;;;16.63;;
52057;SDS011;38063;53.210;6.504;2023-01-26T06:46:27;80.38;;;19.08;;
52057;SDS011;38063;53.210;6.504;2023-01-26T06:48:53;110.07;;;17.95;;
52057;SDS011;38063;53.210;6.504;2023-01-26T06:53:47;93.03;;;16.90;;
52057;SDS011;38063;53.210;6.504;2023-01-26T06:56:20;76.18;;;12.80;;
52057;SDS011;38063;53.210;6.504;2023-01-26T06:58:46;76.25;;;14.10;;
52057;SDS011;38063;53.210;6.504;2023-01-26T07:01:13;83.75;;;13.75;;
52057;SDS011;38063;53.210;6.504;2023-01-26T07:03:41;62.78;;;11.88;;
52057;SDS011;38063;53.210;6.504;2023-01-26T07:06:07;69.78;;;10.93;;
52057;SDS011;38063;53.210;6.504;2023-01-26T07:08:36;69.20;;;10.30;;
52057;SDS011;38063;53.210;6.504;2023-01-26T07:11:02;61.05;;;9.40;;
52057;SDS011;38063;53.210;6.504;2023-01-26T07:13:28;57.55;;;8.88;;
52057;SDS011;38063;53.210;6.504;2023-01-26T07:16:06;49.25;;;8.57;;
52057;SDS011;38063;53.210;6.504;2023-01-26T07:18:34;57.13;;;9.18;;
52057;SDS011;38063;53.210;6.504;2023-01-26T07:21:01;58.72;;;7.57;;
52057;SDS011;38063;53.210;6.504;2023-01-26T07:23:28;61.55;;;7.55;;
52057;SDS011;38063;53.210;6.504;2023-01-26T07:25:54;53.28;;;7.22;;
52057;SDS011;38063;53.210;6.504;2023-01-26T07:28:20;59.05;;;6.25;;
52057;SDS011;38063;53.210;6.504;2023-01-26T07:30:46;43.08;;;5.20;;
52057;SDS011;38063;53.210;6.504;2023-01-26T07:33:13;48.08;;;7.22;;
52057;SDS011;38063;53.210;6.504;2023-01-26T07:35:38;49.80;;;6.72;;
52057;SDS011;38063;53.210;6.504;2023-01-26T07:38:04;42.55;;;5.63;;
52057;SDS011;38063;53.210;6.504;2023-01-26T07:40:30;44.70;;;5.95;;
52057;SDS011;38063;53.210;6.504;2023-01-26T07:42:56;44.70;;;5.47;;
52057;SDS011;38063;53.210;6.504;2023-01-26T07:45:23;41.97;;;5.63;;
52057;SDS011;38063;53.210;6.504;2023-01-26T07:47:49;40.92;;;6.22;;
52057;SDS011;38063;53.210;6.504;2023-01-26T07:50:15;37.88;;;5.25;;
52057;SDS011;38063;53.210;6.504;2023-01-26T07:52:40;38.90;;;5.35;;
52057;SDS011;38063;53.210;6.504;2023-01-26T07:55:07;40.17;;;5.68;;
52057;SDS011;38063;53.210;6.504;2023-01-26T07:57:33;49.10;;;6.15;;
52057;SDS011;38063;53.210;6.504;2023-01-26T07:59:59;34.85;;;5.70;;
52057;SDS011;38063;53.210;6.504;2023-01-26T08:02:24;39.40;;;5.28;;
52057;SDS011;38063;53.210;6.504;2023-01-26T08:04:50;37.40;;;5.40;;
52057;SDS011;38063;53.210;6.504;2023-01-26T08:07:15;45.53;;;5.25;;
52057;SDS011;38063;53.210;6.504;2023-01-26T08:09:41;37.20;;;4.45;;
52057;SDS011;38063;53.210;6.504;2023-01-26T08:12:07;36.72;;;5.07;;
52057;SDS011;38063;53.210;6.504;2023-01-26T08:14:32;43.03;;;4.65;;
52057;SDS011;38063;53.210;6.504;2023-01-26T08:17:00;38.33;;;4.45;;
52057;SDS011;38063;53.210;6.504;2023-01-26T08:19:25;46.50;;;5.32;;
52057;SDS011;38063;53.210;6.504;2023-01-26T08:21:51;34.33;;;4.95;;
52057;SDS011;38063;53.210;6.504;2023-01-26T08:24:18;37.95;;;4.78;;
52057;SDS011;38063;53.210;6.504;2023-01-26T08:26:44;30.83;;;4.50;;
52057;SDS011;38063;53.210;6.504;2023-01-26T08:29:09;33.53;;;4.47;;
52057;SDS011;38063;53.210;6.504;2023-01-26T08:31:36;39.50;;;5.30;;
52057;SDS011;38063;53.210;6.504;2023-01-26T08:34:02;31.48;;;4.38;;
52057;SDS011;38063;53.210;6.504;2023-01-26T08:36:28;31.65;;;4.97;;
52057;SDS011;38063;53.210;6.504;2023-01-26T08:38:54;32.92;;;5.30;;
52057;SDS011;38063;53.210;6.504;2023-01-26T08:41:20;35.10;;;4.18;;
52057;SDS011;38063;53.210;6.504;2023-01-26T08:43:45;43.80;;;4.80;;
52057;SDS011;38063;53.210;6.504;2023-01-26T08:46:11;30.75;;;4.85;;
52057;SDS011;38063;53.210;6.504;2023-01-26T08:48:37;38.42;;;4.55;;
52057;SDS011;38063;53.210;6.504;2023-01-26T08:51:03;43.30;;;4.95;;
52057;SDS011;38063;53.210;6.504;2023-01-26T08:53:30;30.70;;;4.05;;
52057;SDS011;38063;53.210;6.504;2023-01-26T08:55:59;37.63;;;4.60;;
52057;SDS011;38063;53.210;6.504;2023-01-26T08:58:25;37.83;;;9.18;;
52057;SDS011;38063;53.210;6.504;2023-01-26T09:00:52;44.17;;;10.32;;
52057;SDS011;38063;53.210;6.504;2023-01-26T09:03:18;42.67;;;11.20;;
52057;SDS011;38063;53.210;6.504;2023-01-26T09:05:44;48.03;;;9.45;;
52057;SDS011;38063;53.210;6.504;2023-01-26T09:08:09;45.15;;;8.60;;
52057;SDS011;38063;53.210;6.504;2023-01-26T09:10:36;31.63;;;6.68;;
52057;SDS011;38063;53.210;6.504;2023-01-26T09:13:02;41.53;;;6.70;;
52057;SDS011;38063;53.210;6.504;2023-01-26T09:15:28;35.53;;;4.47;;
52057;SDS011;38063;53.210;6.504;2023-01-26T09:17:54;38.28;;;5.63;;
52057;SDS011;38063;53.210;6.504;2023-01-26T09:20:19;29.92;;;4.43;;
52057;SDS011;38063;53.210;6.504;2023-01-26T09:22:45;40.90;;;5.28;;
52057;SDS011;38063;53.210;6.504;2023-01-26T09:25:12;42.28;;;5.68;;
52057;SDS011;38063;53.210;6.504;2023-01-26T09:27:38;31.83;;;4.63;;
52057;SDS011;38063;53.210;6.504;2023-01-26T09:30:05;28.00;;;4.85;;
52057;SDS011;38063;53.210;6.504;2023-01-26T09:32:31;33.47;;;4.25;;
52057;SDS011;38063;53.210;6.504;2023-01-26T09:34:57;41.08;;;4.47;;
52057;SDS011;38063;53.210;6.504;2023-01-26T09:37:23;38.88;;;6.45;;
52057;SDS011;38063;53.210;6.504;2023-01-26T09:39:48;33.50;;;4.25;;
52057;SDS011;38063;53.210;6.504;2023-01-26T09:50:39;35.05;;;4.10;;
52057;SDS011;38063;53.210;6.504;2023-01-26T09:53:36;37.00;;;5.97;;
52057;SDS011;38063;53.210;6.504;2023-01-26T09:56:04;37.55;;;5.72;;
52057;SDS011;38063;53.210;6.504;2023-01-26T09:58:34;28.88;;;4.25;;
52057;SDS011;38063;53.210;6.504;2023-01-26T10:01:04;25.33;;;4.28;;
52057;SDS011;38063;53.210;6.504;2023-01-26T10:06:20;30.27;;;4.40;;
52057;SDS011;38063;53.210;6.504;2023-01-26T10:08:56;40.20;;;4.20;;
52057;SDS011;38063;53.210;6.504;2023-01-26T10:17:32;35.10;;;4.28;;
52057;SDS011;38063;53.210;6.504;2023-01-26T10:20:24;30.30;;;4.03;;
52057;SDS011;38063;53.210;6.504;2023-01-26T10:23:13;30.15;;;4.05;;
52057;SDS011;38063;53.210;6.504;2023-01-26T10:25:41;32.88;;;4.20;;
52057;SDS011;38063;53.210;6.504;2023-01-26T10:28:25;38.30;;;5.85;;
52057;SDS011;38063;53.210;6.504;2023-01-26T10:30:53;30.33;;;3.92;;
52057;SDS011;38063;53.210;6.504;2023-01-26T10:35:54;32.72;;;3.67;;
52057;SDS011;38063;53.210;6.504;2023-01-26T10:41:05;23.02;;;3.67;;
52057;SDS011;38063;53.210;6.504;2023-01-26T10:46:42;32.45;;;3.90;;
52057;SDS011;38063;53.210;6.504;2023-01-26T10:51:37;27.17;;;3.38;;
52057;SDS011;38063;53.210;6.504;2023-01-26T10:54:21;25.77;;;3.55;;
52057;SDS011;38063;53.210;6.504;2023-01-26T10:59:38;24.17;;;2.85;;
52057;SDS011;38063;53.210;6.504;2023-01-26T11:04:35;18.90;;;2.60;;
52057;SDS011;38063;53.210;6.504;2023-01-26T11:13:18;21.27;;;4.05;;
52057;SDS011;38063;53.210;6.504;2023-01-26T11:15:49;21.10;;;3.10;;
52057;SDS011;38063;53.210;6.504;2023-01-26T11:21:35;15.57;;;2.90;;
52057;SDS011;38063;53.210;6.504;2023-01-26T11:24:25;14.98;;;2.83;;
52057;SDS011;38063;53.210;6.504;2023-01-26T11:27:43;19.23;;;3.67;;
52057;SDS011;38063;53.210;6.504;2023-01-26T11:36:12;16.80;;;2.75;;
52057;SDS011;38063;53.210;6.504;2023-01-26T11:39:02;18.92;;;2.42;;
52057;SDS011;38063;53.210;6.504;2023-01-26T11:46:48;19.42;;;2.75;;
52057;SDS011;38063;53.210;6.504;2023-01-26T11:55:00;24.25;;;3.22;;
52057;SDS011;38063;53.210;6.504;2023-01-26T12:00:24;23.80;;;3.30;;
52057;SDS011;38063;53.210;6.504;2023-01-26T12:02:58;24.48;;;2.70;;
52057;SDS011;38063;53.210;6.504;2023-01-26T12:05:39;19.75;;;2.90;;
52057;SDS011;38063;53.210;6.504;2023-01-26T12:16:40;25.48;;;4.57;;
52057;SDS011;38063;53.210;6.504;2023-01-26T12:19:24;21.90;;;3.22;;
52057;SDS011;38063;53.210;6.504;2023-01-26T12:22:23;19.40;;;3.03;;
52057;SDS011;38063;53.210;6.504;2023-01-26T12:24:56;14.10;;;2.50;;
52057;SDS011;38063;53.210;6.504;2023-01-26T12:27:30;14.35;;;2.45;;
52057;SDS011;38063;53.210;6.504;2023-01-26T12:33:11;18.65;;;2.45;;
52057;SDS011;38063;53.210;6.504;2023-01-26T12:35:44;17.73;;;2.38;;
52057;SDS011;38063;53.210;6.504;2023-01-26T12:38:35;13.60;;;2.72;;
52057;SDS011;38063;53.210;6.504;2023-01-26T12:41:14;12.40;;;1.50;;
52057;SDS011;38063;53.210;6.504;2023-01-26T12:46:21;15.23;;;2.05;;
52057;SDS011;38063;53.210;6.504;2023-01-26T12:48:54;15.98;;;1.80;;
52057;SDS011;38063;53.210;6.504;2023-01-26T12:51:28;10.32;;;1.77;;
52057;SDS011;38063;53.210;6.504;2023-01-26T12:56:56;10.50;;;1.42;;
52057;SDS011;38063;53.210;6.504;2023-01-26T12:59:33;11.20;;;1.73;;
52057;SDS011;38063;53.210;6.504;2023-01-26T13:02:10;11.55;;;1.63;;
52057;SDS011;38063;53.210;6.504;2023-01-26T13:04:42;10.52;;;1.50;;
52057;SDS011;38063;53.210;6.504;2023-01-26T13:15:19;14.43;;;1.80;;
52057;SDS011;38063;53.210;6.504;2023-01-26T13:17:48;17.35;;;2.30;;
52057;SDS011;38063;53.210;6.504;2023-01-26T13:26:23;11.40;;;2.15;;
52057;SDS011;38063;53.210;6.504;2023-01-26T13:29:21;13.68;;;2.47;;
52057;SDS011;38063;53.210;6.504;2023-01-26T13:31:52;14.13;;;2.40;;
52057;SDS011;38063;53.210;6.504;2023-01-26T13:34:24;13.60;;;2.53;;
52057;SDS011;38063;53.210;6.504;2023-01-26T13:36:53;14.93;;;2.35;;
52057;SDS011;38063;53.210;6.504;2023-01-26T13:39:30;12.32;;;2.47;;
52057;SDS011;38063;53.210;6.504;2023-01-26T13:42:00;21.30;;;2.30;;
52057;SDS011;38063;53.210;6.504;2023-01-26T13:44:29;14.18;;;1.77;;
52057;SDS011;38063;53.210;6.504;2023-01-26T13:47:06;24.20;;;3.47;;
52057;SDS011;38063;53.210;6.504;2023-01-26T13:49:37;14.45;;;2.20;;
52057;SDS011;38063;53.210;6.504;2023-01-26T13:54:43;12.90;;;2.63;;
52057;SDS011;38063;53.210;6.504;2023-01-26T13:57:10;12.77;;;2.45;;
52057;SDS011;38063;53.210;6.504;2023-01-26T13:59:56;15.93;;;2.17;;
52057;SDS011;38063;53.210;6.504;2023-01-26T14:02:30;15.18;;;2.42;;
52057;SDS011;38063;53.210;6.504;2023-01-26T14:04:58;19.40;;;2.15;;
52057;SDS011;38063;53.210;6.504;2023-01-26T14:07:37;16.30;;;2.20;;
52057;SDS011;38063;53.210;6.504;2023-01-26T14:10:05;15.23;;;2.35;;
52057;SDS011;38063;53.210;6.504;2023-01-26T14:12:42;13.73;;;1.95;;
52057;SDS011;38063;53.210;6.504;2023-01-26T14:15:23;11.65;;;1.73;;
52057;SDS011;38063;53.210;6.504;2023-01-26T14:17:54;10.27;;;1.83;;
52057;SDS011;38063;53.210;6.504;2023-01-26T14:23:15;17.83;;;2.50;;
52057;SDS011;38063;53.210;6.504;2023-01-26T14:25:47;11.52;;;1.92;;
52057;SDS011;38063;53.210;6.504;2023-01-26T14:28:21;14.50;;;2.15;;
52057;SDS011;38063;53.210;6.504;2023-01-26T14:30:50;17.27;;;2.63;;
52057;SDS011;38063;53.210;6.504;2023-01-26T14:33:19;18.95;;;2.95;;
52057;SDS011;38063;53.210;6.504;2023-01-26T14:36:20;12.00;;;2.15;;
52057;SDS011;38063;53.210;6.504;2023-01-26T14:38:42;15.25;;;2.72;;
52057;SDS011;38063;53.210;6.504;2023-01-26T14:41:16;14.85;;;2.25;;
52057;SDS011;38063;53.210;6.504;2023-01-26T14:43:42;16.70;;;2.47;;
52057;SDS011;38063;53.210;6.504;2023-01-26T14:46:20;18.90;;;2.35;;
52057;SDS011;38063;53.210;6.504;2023-01-26T14:48:51;18.55;;;2.00;;
52057;SDS011;38063;53.210;6.504;2023-01-26T14:51:32;17.55;;;2.88;;
52057;SDS011;38063;53.210;6.504;2023-01-26T14:54:00;19.92;;;2.00;;
52057;SDS011;38063;53.210;6.504;2023-01-26T14:56:34;18.70;;;3.15;;
52057;SDS011;38063;53.210;6.504;2023-01-26T14:59:04;22.42;;;2.30;;
52057;SDS011;38063;53.210;6.504;2023-01-26T15:01:31;18.80;;;2.45;;
52057;SDS011;38063;53.210;6.504;2023-01-26T15:04:44;10.07;;;2.50;;
52057;SDS011;38063;53.210;6.504;2023-01-26T15:06:51;12.02;;;2.15;;
52057;SDS011;38063;53.210;6.504;2023-01-26T15:09:21;16.40;;;2.58;;
52057;SDS011;38063;53.210;6.504;2023-01-26T15:11:52;14.65;;;2.53;;
52057;SDS011;38063;53.210;6.504;2023-01-26T15:17:25;13.65;;;2.55;;
52057;SDS011;38063;53.210;6.504;2023-01-26T15:20:00;17.08;;;2.20;;
52057;SDS011;38063;53.210;6.504;2023-01-26T15:22:25;23.58;;;2.67;;
52057;SDS011;38063;53.210;6.504;2023-01-26T15:24:58;17.90;;;2.70;;
52057;SDS011;38063;53.210;6.504;2023-01-26T15:27:30;17.13;;;2.47;;
52057;SDS011;38063;53.210;6.504;2023-01-26T15:29:58;16.92;;;2.78;;
52057;SDS011;38063;53.210;6.504;2023-01-26T15:32:26;16.80;;;2.83;;
52057;SDS011;38063;53.210;6.504;2023-01-26T15:35:03;14.73;;;2.33;;
52057;SDS011;38063;53.210;6.504;2023-01-26T15:38:13;16.33;;;3.13;;
52057;SDS011;38063;53.210;6.504;2023-01-26T15:40:38;20.88;;;3.08;;
52057;SDS011;38063;53.210;6.504;2023-01-26T15:43:08;11.73;;;2.45;;
52057;SDS011;38063;53.210;6.504;2023-01-26T15:45:39;20.02;;;3.38;;
52057;SDS011;38063;53.210;6.504;2023-01-26T15:48:07;18.30;;;2.58;;
52057;SDS011;38063;53.210;6.504;2023-01-26T15:50:33;18.98;;;2.83;;
52057;SDS011;38063;53.210;6.504;2023-01-26T15:52:59;25.45;;;3.90;;
52057;SDS011;38063;53.210;6.504;2023-01-26T15:55:26;17.67;;;2.80;;
52057;SDS011;38063;53.210;6.504;2023-01-26T15:57:54;17.67;;;3.13;;
52057;SDS011;38063;53.210;6.504;2023-01-26T16:00:20;19.65;;;2.95;;
52057;SDS011;38063;53.210;6.504;2023-01-26T16:02:47;15.00;;;2.45;;
52057;SDS011;38063;53.210;6.504;2023-01-26T16:05:22;22.30;;;3.25;;
52057;SDS011;38063;53.210;6.504;2023-01-26T16:07:50;17.70;;;3.17;;
52057;SDS011;38063;53.210;6.504;2023-01-26T16:10:16;20.02;;;3.45;;
52057;SDS011;38063;53.210;6.504;2023-01-26T16:12:42;16.75;;;2.83;;
52057;SDS011;38063;53.210;6.504;2023-01-26T16:15:17;13.38;;;2.38;;
52057;SDS011;38063;53.210;6.504;2023-01-26T16:17:53;15.48;;;2.10;;
52057;SDS011;38063;53.210;6.504;2023-01-26T16:20:19;16.27;;;3.05;;
52057;SDS011;38063;53.210;6.504;2023-01-26T16:22:45;16.45;;;2.60;;
52057;SDS011;38063;53.210;6.504;2023-01-26T16:25:27;21.15;;;3.25;;
52057;SDS011;38063;53.210;6.504;2023-01-26T16:27:55;18.90;;;2.80;;
52057;SDS011;38063;53.210;6.504;2023-01-26T16:30:22;26.73;;;4.35;;
52057;SDS011;38063;53.210;6.504;2023-01-26T16:32:48;22.50;;;3.22;;
52057;SDS011;38063;53.210;6.504;2023-01-26T16:35:15;15.90;;;3.45;;
52057;SDS011;38063;53.210;6.504;2023-01-26T16:37:43;19.02;;;3.22;;